BAW119 EGLL-VOBL
Flight info
| Callsign | BAW119 |
|---|---|
| Flight time | N/A |
| Altitude | 35000 |
| Route | DET L6 DVR UL9 KONAN DCT KOK DCT KOMOB DCT PITES DCT BANUX DCT VEKIR DCT ERKIR DCT BERTA DCT PIXAL DCT OKSIG DCT AKIKA DCT ENFAR DCT BITLA DCT AKINA DCT VANZA/N0485F370 DCT RASDA A16 CVO L315 HGD M872 PMA Y214 RAPMA DCT ULONO DCT DAPOL/N0486F390 L692 GISKA N569 UMILA L883 REXOD N563 GUNIM GUNIM7F |
| Aircraft | B772/H-SDE2E3FGHIJ5LORVWXY/LB1D1 |
Departure
| Time | N/A |
|---|---|
| Airport | London Heathrow Airport (EGLL) |
Arrival
| Time | 2026-04-29 07:03 |
|---|---|
| Airport | Kempegowda International Airport Bengaluru (VOBL) |
| Time | Latitude | Longitude | Altitude | Speed | Heading |
|---|---|---|---|---|---|
| 2026-04-29 06:45 | 13.20864 | 77.19671 | 21482 ft | 368 kts | 119° |
| 2026-04-29 06:45 | 13.19649 | 77.21951 | 21336 ft | 360 kts | 119° |
| 2026-04-29 06:45 | 13.18463 | 77.24176 | 21210 ft | 351 kts | 119° |
| 2026-04-29 06:45 | 13.17319 | 77.26353 | 20945 ft | 343 kts | 115° |
| 2026-04-29 06:46 | 13.16631 | 77.28678 | 20345 ft | 343 kts | 99° |
| 2026-04-29 06:46 | 13.16275 | 77.31109 | 19754 ft | 347 kts | 98° |
| 2026-04-29 06:46 | 13.15949 | 77.33539 | 19218 ft | 350 kts | 98° |
| 2026-04-29 06:46 | 13.15612 | 77.36012 | 18743 ft | 350 kts | 98° |
| 2026-04-29 06:47 | 13.15265 | 77.38478 | 18352 ft | 347 kts | 98° |
| 2026-04-29 06:47 | 13.14911 | 77.40918 | 17983 ft | 344 kts | 99° |
| 2026-04-29 06:47 | 13.14552 | 77.43338 | 17598 ft | 342 kts | 99° |
| 2026-04-29 06:47 | 13.14192 | 77.45742 | 17196 ft | 340 kts | 99° |
| 2026-04-29 06:48 | 13.13830 | 77.48138 | 16794 ft | 338 kts | 99° |
| 2026-04-29 06:48 | 13.13470 | 77.50515 | 16399 ft | 336 kts | 99° |
| 2026-04-29 06:48 | 13.13112 | 77.52875 | 16007 ft | 334 kts | 99° |
| 2026-04-29 06:48 | 13.12755 | 77.55222 | 15624 ft | 332 kts | 99° |
| 2026-04-29 06:49 | 13.12400 | 77.57558 | 15227 ft | 330 kts | 99° |
| 2026-04-29 06:49 | 13.12046 | 77.59884 | 14835 ft | 328 kts | 99° |
| 2026-04-29 06:49 | 13.11699 | 77.62165 | 14451 ft | 326 kts | 99° |
| 2026-04-29 06:49 | 13.11350 | 77.64457 | 14060 ft | 324 kts | 99° |
| 2026-04-29 06:50 | 13.11002 | 77.66737 | 13677 ft | 323 kts | 99° |
| 2026-04-29 06:50 | 13.10660 | 77.69006 | 13287 ft | 321 kts | 98° |
| 2026-04-29 06:50 | 13.10506 | 77.71282 | 12895 ft | 319 kts | 91° |
| 2026-04-29 06:50 | 13.10517 | 77.73549 | 12501 ft | 317 kts | 89° |
| 2026-04-29 06:51 | 13.10551 | 77.75808 | 12119 ft | 316 kts | 89° |
| 2026-04-29 06:51 | 13.10570 | 77.78051 | 11750 ft | 313 kts | 90° |
| 2026-04-29 06:51 | 13.10570 | 77.80255 | 11583 ft | 304 kts | 90° |
| 2026-04-29 06:51 | 13.10560 | 77.82387 | 11472 ft | 293 kts | 91° |
| 2026-04-29 06:52 | 13.10546 | 77.84445 | 11361 ft | 283 kts | 91° |
| 2026-04-29 06:52 | 13.10532 | 77.86425 | 11257 ft | 273 kts | 91° |
| 2026-04-29 06:52 | 13.10520 | 77.88329 | 10979 ft | 261 kts | 91° |
| 2026-04-29 06:52 | 13.10508 | 77.90179 | 10450 ft | 258 kts | 91° |
| 2026-04-29 06:53 | 13.10497 | 77.92019 | 9865 ft | 257 kts | 91° |
| 2026-04-29 06:53 | 13.10486 | 77.93848 | 9304 ft | 256 kts | 91° |
| 2026-04-29 06:53 | 13.10475 | 77.95606 | 9171 ft | 244 kts | 91° |
| 2026-04-29 06:53 | 13.10463 | 77.97378 | 9198 ft | 253 kts | 91° |
| 2026-04-29 06:54 | 13.10451 | 77.99230 | 8948 ft | 266 kts | 91° |
| 2026-04-29 06:54 | 13.10438 | 78.01131 | 8419 ft | 265 kts | 91° |
| 2026-04-29 06:54 | 13.10427 | 78.03009 | 7888 ft | 261 kts | 89° |
| 2026-04-29 06:54 | 13.10813 | 78.04809 | 7353 ft | 264 kts | 62° |
| 2026-04-29 06:55 | 13.12022 | 78.06208 | 6998 ft | 264 kts | 32° |
| 2026-04-29 06:55 | 13.13723 | 78.06833 | 6705 ft | 261 kts | 4° |
| 2026-04-29 06:55 | 13.15487 | 78.06553 | 6406 ft | 256 kts | 337° |
| 2026-04-29 06:55 | 13.17075 | 78.05740 | 6132 ft | 254 kts | 330° |
| 2026-04-29 06:56 | 13.18577 | 78.04859 | 6049 ft | 243 kts | 328° |
| 2026-04-29 06:56 | 13.19786 | 78.03772 | 5990 ft | 225 kts | 300° |
| 2026-04-29 06:56 | 13.20237 | 78.02289 | 6003 ft | 217 kts | 276° |
| 2026-04-29 06:56 | 13.20375 | 78.00741 | 6013 ft | 219 kts | 273° |
| 2026-04-29 06:57 | 13.20441 | 77.99177 | 6003 ft | 219 kts | 271° |
| 2026-04-29 06:57 | 13.20470 | 77.97609 | 5996 ft | 219 kts | 270° |
| 2026-04-29 06:57 | 13.20485 | 77.96064 | 5992 ft | 219 kts | 270° |
| 2026-04-29 06:57 | 13.20498 | 77.94485 | 5997 ft | 218 kts | 270° |
| 2026-04-29 06:58 | 13.20510 | 77.92957 | 5993 ft | 214 kts | 270° |
| 2026-04-29 06:58 | 13.20520 | 77.91466 | 6007 ft | 203 kts | 270° |
| 2026-04-29 06:58 | 13.20531 | 77.90063 | 6028 ft | 190 kts | 270° |
| 2026-04-29 06:58 | 13.20543 | 77.88753 | 5992 ft | 178 kts | 270° |
| 2026-04-29 06:59 | 13.20554 | 77.87469 | 5808 ft | 181 kts | 270° |
| 2026-04-29 06:59 | 13.20565 | 77.86195 | 5565 ft | 176 kts | 270° |
| 2026-04-29 06:59 | 13.20576 | 77.84992 | 5351 ft | 161 kts | 270° |
| 2026-04-29 06:59 | 13.20582 | 77.84256 | 5205 ft | 149 kts | 270° |
| 2026-04-29 07:00 | 13.20591 | 77.83237 | 5037 ft | 141 kts | 270° |
| 2026-04-29 07:00 | 13.20599 | 77.82226 | 4846 ft | 141 kts | 270° |
| 2026-04-29 07:00 | 13.20607 | 77.81222 | 4650 ft | 140 kts | 270° |
| 2026-04-29 07:00 | 13.20616 | 77.80229 | 4465 ft | 139 kts | 270° |
| 2026-04-29 07:01 | 13.20625 | 77.79239 | 4284 ft | 139 kts | 270° |
| 2026-04-29 07:01 | 13.20633 | 77.78243 | 4097 ft | 139 kts | 270° |
| 2026-04-29 07:01 | 13.20642 | 77.77265 | 3917 ft | 139 kts | 270° |
| 2026-04-29 07:01 | 13.20650 | 77.76277 | 3731 ft | 138 kts | 270° |
| 2026-04-29 07:02 | 13.20651 | 77.76203 | 3717 ft | 138 kts | 270° |
| 2026-04-29 07:02 | 13.20662 | 77.74927 | 3478 ft | 137 kts | 270° |
| 2026-04-29 07:02 | 13.20667 | 77.74277 | 3361 ft | 137 kts | 270° |
| 2026-04-29 07:02 | 13.20678 | 77.73299 | 3164 ft | 137 kts | 269° |
| 2026-04-29 07:03 | 13.20688 | 77.72326 | 2986 ft | 136 kts | 268° |
| 2026-04-29 07:03 | 13.20694 | 77.71400 | 2952 ft | 117 kts | 271° |
| 2026-04-29 07:03 | 13.20701 | 77.70751 | 2967 ft | 64 kts | 270° |
| 2026-04-29 07:03 | 13.20703 | 77.70452 | 2974 ft | 31 kts | 272° |
| 2026-04-29 07:04 | 13.20702 | 77.70253 | 2978 ft | 28 kts | 268° |
| 2026-04-29 07:04 | 13.20670 | 77.70082 | 2982 ft | 23 kts | 250° |
| 2026-04-29 07:04 | 13.20610 | 77.69961 | 2984 ft | 19 kts | 230° |
| 2026-04-29 07:04 | 13.20537 | 77.69980 | 2984 ft | 11 kts | 101° |
| 2026-04-29 07:05 | 13.20535 | 77.70058 | 2982 ft | 11 kts | 90° |
| 2026-04-29 07:05 | 13.20534 | 77.70136 | 2981 ft | 11 kts | 90° |
| 2026-04-29 07:05 | 13.20533 | 77.70215 | 2979 ft | 11 kts | 91° |
| 2026-04-29 07:05 | 13.20532 | 77.70293 | 2977 ft | 11 kts | 91° |
| 2026-04-29 07:06 | 13.20530 | 77.70371 | 2975 ft | 11 kts | 91° |
| 2026-04-29 07:06 | 13.20530 | 77.70449 | 2973 ft | 11 kts | 90° |
| 2026-04-29 07:06 | 13.20530 | 77.70526 | 2972 ft | 11 kts | 89° |
| 2026-04-29 07:06 | 13.20530 | 77.70604 | 2970 ft | 11 kts | 90° |
| 2026-04-29 07:07 | 13.20530 | 77.70682 | 2968 ft | 11 kts | 90° |
| 2026-04-29 07:07 | 13.20527 | 77.70760 | 2966 ft | 11 kts | 93° |
| 2026-04-29 07:07 | 13.20526 | 77.70839 | 2964 ft | 11 kts | 90° |
| 2026-04-29 07:07 | 13.20526 | 77.70917 | 2959 ft | 11 kts | 90° |
| 2026-04-29 07:08 | 13.20526 | 77.70995 | 2956 ft | 11 kts | 90° |
| 2026-04-29 07:08 | 13.20526 | 77.71073 | 2953 ft | 11 kts | 90° |
| 2026-04-29 07:08 | 13.20519 | 77.71150 | 2954 ft | 11 kts | 117° |
| 2026-04-29 07:08 | 13.20451 | 77.71178 | 2946 ft | 11 kts | 179° |
| 2026-04-29 07:09 | 13.20374 | 77.71177 | 2945 ft | 11 kts | 181° |
| 2026-04-29 07:09 | 13.20299 | 77.71171 | 2948 ft | 11 kts | 189° |
| 2026-04-29 07:09 | 13.20223 | 77.71163 | 2949 ft | 11 kts | 182° |
| 2026-04-29 07:09 | 13.20181 | 77.71162 | 2944 ft | 1 kts | 181° |
| 2026-04-29 07:10 | 13.20173 | 77.71161 | 2947 ft | 0 kts | 181° |